Time;durP1;ratioP1;P1;durP2;ratioP2;P2;SDS_P1;SDS_P2;PMS_P1;PMS_P2;Temp;Humidity;BMP_temperature;BMP_pressure;BME280_temperature;BME280_humidity;BME280_pressure;Samples;Min_cycle;Max_cycle;Signal;HPM_P1;HPM_P2
2022/10/11 00:00:17;;;;;;;11.52;6.68;;;359.10;2329.60;;;;;;5028947;28;20045;-74
2022/10/11 00:02:43;;;;;;;9.77;6.15;;;359.10;2329.60;;;;;;5021722;28;20073;-75
2022/10/11 00:05:09;;;;;;;15.05;6.78;;;359.10;2329.60;;;;;;5016523;28;20018;-76
2022/10/11 00:07:38;;;;;;;13.40;6.50;;;359.20;2329.60;;;;;;5017726;28;20498;-74
2022/10/11 00:10:06;;;;;;;15.48;7.13;;;359.20;2329.60;;;;;;5016083;28;20030;-77
2022/10/11 00:12:32;;;;;;;9.65;6.43;;;359.10;2329.60;;;;;;5014261;28;20025;-76
2022/10/11 00:14:58;;;;;;;14.45;7.40;;;359.10;2329.60;;;;;;5017506;28;20399;-75
2022/10/11 00:17:24;;;;;;;15.80;7.05;;;359.20;2329.60;;;;;;5018256;28;20041;-75
2022/10/11 00:19:49;;;;;;;12.65;7.88;;;359.10;2329.60;;;;;;5018771;28;20043;-76
2022/10/11 00:22:15;;;;;;;11.85;6.47;;;359.00;2329.60;;;;;;5015026;28;20088;-78
2022/10/11 00:24:41;;;;;;;11.07;6.82;;;359.00;2329.60;;;;;;5015406;28;20025;-74
2022/10/11 00:27:06;;;;;;;10.57;7.18;;;359.00;2329.60;;;;;;5023865;28;20495;-74
2022/10/11 00:29:32;;;;;;;9.18;6.25;;;359.00;2329.60;;;;;;5020958;28;20080;-78
2022/10/11 00:31:58;;;;;;;14.80;7.55;;;359.00;2329.60;;;;;;5022399;28;20061;-74
2022/10/11 00:34:24;;;;;;;10.80;6.57;;;359.00;2329.60;;;;;;5021897;28;20028;-74
2022/10/11 00:36:50;;;;;;;13.00;7.03;;;358.90;2329.60;;;;;;5017146;28;20494;-74
2022/10/11 00:39:16;;;;;;;11.90;7.45;;;359.00;2329.60;;;;;;5029665;28;20096;-75
2022/10/11 00:41:42;;;;;;;11.18;6.53;;;359.00;2329.60;;;;;;5032574;28;20056;-75
2022/10/11 00:44:16;;;;;;;11.38;6.15;;;359.00;2329.60;;;;;;5032257;28;20025;-74
2022/10/11 00:46:56;;;;;;;12.90;6.45;;;359.00;2329.60;;;;;;5021948;28;20534;-76
2022/10/11 00:49:41;;;;;;;13.77;7.13;;;359.00;2329.60;;;;;;5023467;28;20018;-75
2022/10/11 00:52:33;;;;;;;16.60;8.02;;;359.10;2329.60;;;;;;5023315;28;20080;-74
2022/10/11 00:55:06;;;;;;;18.90;7.70;;;359.00;2329.60;;;;;;5017668;28;20072;-74
2022/10/11 00:57:35;;;;;;;15.07;7.40;;;359.00;2329.60;;;;;;5017860;28;20022;-75
2022/10/11 01:00:05;;;;;;;18.63;8.18;;;359.00;2329.60;;;;;;5016574;28;20018;-74
2022/10/11 01:02:30;;;;;;;10.52;6.78;;;359.00;2329.60;;;;;;5020218;28;20053;-76
2022/10/11 01:04:56;;;;;;;10.93;7.05;;;359.00;2329.60;;;;;;4996712;28;20100;-75
2022/10/11 01:07:26;;;;;;;13.15;7.50;;;359.00;2329.60;;;;;;5017428;28;20029;-76
2022/10/11 01:09:52;;;;;;;13.13;7.53;;;359.00;2329.60;;;;;;5011880;28;20018;-75
2022/10/11 01:12:22;;;;;;;17.75;7.80;;;359.10;2329.60;;;;;;5012958;28;20022;-74
2022/10/11 01:15:03;;;;;;;11.00;7.30;;;359.00;2329.60;;;;;;5015682;28;20032;-75
2022/10/11 01:17:54;;;;;;;20.95;8.02;;;359.00;2329.60;;;;;;5017511;28;20056;-76
2022/10/11 01:20:36;;;;;;;15.63;7.10;;;359.00;2329.60;;;;;;5008973;28;20072;-76
2022/10/11 01:23:31;;;;;;;14.80;8.02;;;359.00;2329.60;;;;;;4996814;28;20026;-75
2022/10/11 01:26:54;;;;;;;13.30;7.55;;;359.00;2329.60;;;;;;5017271;28;20072;-74
2022/10/11 01:29:57;;;;;;;13.75;7.15;;;359.10;2329.60;;;;;;4958718;28;20031;-75
2022/10/11 01:32:26;;;;;;;12.13;7.47;;;359.20;2329.60;;;;;;4954414;28;20074;-75
2022/10/11 01:35:07;;;;;;;17.90;7.72;;;359.10;2329.60;;;;;;4960187;28;20665;-75
2022/10/11 01:37:40;;;;;;;13.43;7.18;;;359.20;2329.60;;;;;;4956475;28;20048;-74
2022/10/11 01:40:17;;;;;;;18.17;7.55;;;359.20;2329.60;;;;;;4954574;28;20031;-74
2022/10/11 01:42:44;;;;;;;13.10;7.05;;;359.10;2329.60;;;;;;4965428;28;20039;-75
2022/10/11 01:45:15;;;;;;;18.10;7.35;;;359.10;2329.60;;;;;;4959957;28;20520;-80
2022/10/11 01:47:41;;;;;;;16.25;8.27;;;359.20;2329.60;;;;;;4953617;28;20027;-79
2022/10/11 01:50:47;;;;;;;14.77;7.03;;;359.20;2329.60;;;;;;4955792;28;20027;-75
2022/10/11 01:53:30;;;;;;;14.40;7.90;;;359.20;2329.60;;;;;;4953202;28;20051;-79
2022/10/11 01:56:14;;;;;;;20.27;6.82;;;359.20;2329.60;;;;;;4956309;28;20114;-76
2022/10/11 01:59:06;;;;;;;11.75;7.78;;;359.10;2329.60;;;;;;4953937;28;20500;-74
2022/10/11 02:01:46;;;;;;;15.90;8.05;;;359.10;2329.60;;;;;;4954475;28;20039;-75
2022/10/11 02:04:31;;;;;;;12.25;7.20;;;359.10;2329.60;;;;;;5027685;28;20053;-76
2022/10/11 02:07:09;;;;;;;13.45;7.43;;;359.00;2329.60;;;;;;5013955;28;20021;-75
2022/10/11 02:09:39;;;;;;;12.88;6.88;;;359.10;2329.60;;;;;;5011026;28;20030;-75
2022/10/11 02:12:09;;;;;;;13.65;8.02;;;359.00;2329.60;;;;;;5018182;28;20018;-75
2022/10/11 02:14:40;;;;;;;13.07;7.35;;;359.00;2329.60;;;;;;5020297;28;20487;-75
2022/10/11 02:17:19;;;;;;;17.38;7.80;;;359.00;2329.60;;;;;;5024023;28;20109;-76
2022/10/11 02:19:51;;;;;;;11.88;7.50;;;359.00;2329.60;;;;;;5014015;28;20020;-75
2022/10/11 02:22:23;;;;;;;21.88;7.78;;;359.00;2329.60;;;;;;5019424;28;20046;-74
2022/10/11 02:24:52;;;;;;;17.10;7.13;;;359.00;2329.60;;;;;;4993529;28;20017;-75
2022/10/11 02:27:22;;;;;;;13.05;7.25;;;359.00;2329.60;;;;;;5025558;28;20025;-75
2022/10/11 02:29:49;;;;;;;22.15;7.55;;;359.00;2329.60;;;;;;5015638;28;20506;-75
2022/10/11 02:32:17;;;;;;;13.50;6.55;;;359.00;2329.60;;;;;;5013673;28;20041;-74
2022/10/11 02:34:52;;;;;;;20.58;8.32;;;359.00;2329.60;;;;;;5016139;28;20015;-75
2022/10/11 02:37:31;;;;;;;11.68;7.50;;;359.00;2329.60;;;;;;5020837;28;20484;-75
2022/10/11 02:40:13;;;;;;;10.63;7.03;;;358.90;2329.60;;;;;;5017785;28;20073;-75
2022/10/11 02:42:44;;;;;;;12.65;7.07;;;358.80;2329.60;;;;;;5020322;28;20033;-74
2022/10/11 02:45:17;;;;;;;13.75;6.13;;;358.80;2329.60;;;;;;5016227;28;20014;-75
2022/10/11 02:47:44;;;;;;;11.32;7.03;;;358.80;2329.60;;;;;;5028502;28;20045;-79
2022/10/11 02:50:11;;;;;;;14.75;7.75;;;358.70;2329.60;;;;;;5024800;28;20430;-75
2022/10/11 02:52:37;;;;;;;13.27;8.95;;;358.60;2329.60;;;;;;5023456;28;20033;-77
2022/10/11 02:55:04;;;;;;;12.45;7.43;;;358.60;2329.60;;;;;;5022613;28;20018;-75
2022/10/11 02:57:29;;;;;;;10.80;6.90;;;358.50;2329.60;;;;;;5014245;28;20360;-75
2022/10/11 02:59:55;;;;;;;11.77;6.80;;;358.50;2329.60;;;;;;5017526;28;20022;-75
2022/10/11 03:02:21;;;;;;;15.48;6.65;;;358.50;2329.60;;;;;;5016821;28;20069;-75
2022/10/11 03:04:47;;;;;;;13.73;7.20;;;358.50;2329.60;;;;;;5019927;28;20171;-75
2022/10/11 03:07:13;;;;;;;16.33;7.15;;;358.50;2329.60;;;;;;5016920;28;20036;-74
2022/10/11 03:09:39;;;;;;;21.95;7.97;;;358.50;2329.60;;;;;;5022553;28;20383;-76
2022/10/11 03:12:06;;;;;;;18.25;7.78;;;358.50;2329.60;;;;;;5022350;28;20494;-76
2022/10/11 03:14:32;;;;;;;14.88;7.60;;;358.60;2329.60;;;;;;5025243;28;20036;-80
2022/10/11 03:16:58;;;;;;;20.90;8.63;;;358.50;2329.60;;;;;;5016682;28;20022;-74
2022/10/11 03:19:25;;;;;;;16.55;7.68;;;358.50;2329.60;;;;;;5016758;28;20399;-75
2022/10/11 03:21:50;;;;;;;13.32;7.53;;;358.40;2329.60;;;;;;5015610;28;20037;-74
2022/10/11 03:24:16;;;;;;;16.75;7.20;;;358.50;2329.60;;;;;;5002298;28;20014;-75
2022/10/11 03:26:42;;;;;;;18.33;7.65;;;358.50;2329.60;;;;;;5002456;28;20515;-74
2022/10/11 03:29:08;;;;;;;15.93;8.02;;;358.50;2329.60;;;;;;5020064;28;20021;-75
2022/10/11 03:31:34;;;;;;;15.73;7.20;;;358.60;2329.60;;;;;;5020657;28;20040;-74
2022/10/11 03:34:00;;;;;;;15.35;7.63;;;358.50;2329.60;;;;;;5013760;28;20208;-74
2022/10/11 03:36:26;;;;;;;17.20;6.95;;;358.50;2329.60;;;;;;5016720;28;20514;-74
2022/10/11 03:38:52;;;;;;;19.02;9.20;;;358.50;2329.60;;;;;;5031861;28;20100;-75
2022/10/11 03:41:17;;;;;;;18.90;7.20;;;358.60;2329.60;;;;;;5022929;28;20034;-75
2022/10/11 03:43:43;;;;;;;19.25;7.75;;;358.60;2329.60;;;;;;5018718;28;20022;-78
2022/10/11 03:46:09;;;;;;;11.15;6.85;;;358.60;2329.60;;;;;;5018609;28;20464;-80
2022/10/11 03:48:35;;;;;;;19.98;8.23;;;358.60;2329.60;;;;;;5018295;28;20022;-74
2022/10/11 03:51:00;;;;;;;9.30;5.85;;;358.60;2329.60;;;;;;5025098;28;20033;-75
2022/10/11 03:53:26;;;;;;;14.50;6.70;;;358.60;2329.60;;;;;;5024448;28;20808;-74
2022/10/11 03:55:53;;;;;;;14.20;6.70;;;358.60;2329.60;;;;;;5016030;28;20026;-75
2022/10/11 03:58:19;;;;;;;16.75;7.60;;;358.50;2329.60;;;;;;5018468;28;20074;-77
2022/10/11 04:00:45;;;;;;;16.90;7.65;;;358.60;2329.60;;;;;;5013116;28;20469;-74
2022/10/11 04:03:11;;;;;;;13.00;7.40;;;358.60;2329.60;;;;;;5017258;28;20050;-76
2022/10/11 04:05:37;;;;;;;17.38;8.20;;;358.60;2329.60;;;;;;4996590;28;20064;-74
2022/10/11 04:08:03;;;;;;;15.30;8.45;;;358.50;2329.60;;;;;;5015901;28;20423;-73
2022/10/11 04:10:30;;;;;;;14.38;7.20;;;358.50;2329.60;;;;;;5018402;28;20017;-74
2022/10/11 04:12:56;;;;;;;16.52;7.28;;;358.50;2329.60;;;;;;5015658;28;20093;-76
2022/10/11 04:15:22;;;;;;;17.05;7.45;;;358.50;2329.60;;;;;;5012934;28;20488;-74
2022/10/11 04:17:48;;;;;;;13.77;7.05;;;358.50;2329.60;;;;;;5017296;28;20026;-77
2022/10/11 04:20:14;;;;;;;18.08;7.85;;;358.40;2329.60;;;;;;5021251;28;20024;-74
2022/10/11 04:22:40;;;;;;;12.07;7.50;;;358.40;2329.60;;;;;;5013778;28;20092;-76
2022/10/11 04:25:06;;;;;;;14.95;7.28;;;333.70;2329.60;;;;;;5021146;28;20452;-76
2022/10/11 04:27:33;;;;;;;18.73;9.23;;;333.60;2329.60;;;;;;5004422;28;20120;-75
2022/10/11 04:29:58;;;;;;;13.93;7.70;;;333.60;2329.60;;;;;;5027813;28;20055;-74
2022/10/11 04:32:24;;;;;;;16.38;8.15;;;333.60;2329.60;;;;;;5052947;28;20517;-76
2022/10/11 04:34:50;;;;;;;14.95;7.72;;;333.70;2329.60;;;;;;5035360;28;20489;-76
2022/10/11 04:37:17;;;;;;;12.20;6.65;;;333.70;2329.60;;;;;;5032932;28;20112;-76
2022/10/11 04:39:43;;;;;;;22.45;7.75;;;333.70;2329.60;;;;;;5021594;28;20025;-75
2022/10/11 04:42:08;;;;;;;13.02;7.80;;;358.60;2329.60;;;;;;5020066;28;20034;-76
2022/10/11 04:44:34;;;;;;;19.40;8.02;;;333.60;2329.60;;;;;;5000532;28;20021;-77
2022/10/11 04:47:00;;;;;;;11.68;7.68;;;333.60;2329.60;;;;;;5001865;28;20379;-76
2022/10/11 04:49:26;;;;;;;31.17;7.70;;;333.60;2329.60;;;;;;5027062;28;20032;-79
2022/10/11 04:51:52;;;;;;;21.38;6.93;;;333.60;2329.60;;;;;;5027549;28;20048;-75
2022/10/11 04:54:18;;;;;;;16.02;7.55;;;333.60;2329.60;;;;;;5018816;28;20033;-84
2022/10/11 04:56:43;;;;;;;17.17;7.78;;;333.60;2329.60;;;;;;5017846;28;20096;-75
2022/10/11 04:59:09;;;;;;;15.95;7.88;;;333.60;2329.60;;;;;;5016792;28;20022;-76
2022/10/11 05:01:35;;;;;;;19.88;8.18;;;333.60;2329.60;;;;;;5027743;28;20090;-75
2022/10/11 05:04:01;;;;;;;26.02;7.80;;;333.60;2329.60;;;;;;5052414;28;20455;-74
2022/10/11 05:06:28;;;;;;;14.88;6.82;;;333.50;2329.60;;;;;;5020488;28;20128;-81
2022/10/11 05:08:54;;;;;;;19.02;8.00;;;333.60;2329.60;;;;;;5052771;28;20105;-85
2022/10/11 05:11:19;;;;;;;16.92;8.02;;;333.50;2329.60;;;;;;5038513;28;20100;-78
2022/10/11 05:13:45;;;;;;;16.25;7.35;;;333.50;2329.60;;;;;;5025063;28;20127;-77
2022/10/11 05:16:12;;;;;;;29.33;7.75;;;333.60;2329.60;;;;;;5047955;28;20502;-77
2022/10/11 05:18:38;;;;;;;18.92;7.25;;;333.60;2329.60;;;;;;5034894;28;20116;-75
2022/10/11 05:21:07;;;;;;;13.45;7.10;;;333.60;2329.60;;;;;;5020486;28;20120;-75
2022/10/11 05:23:35;;;;;;;15.18;8.32;;;333.60;2329.60;;;;;;5033785;28;20033;-76
2022/10/11 05:26:02;;;;;;;17.00;8.38;;;333.60;2329.60;;;;;;5020559;28;20025;-76
2022/10/11 05:28:28;;;;;;;18.00;8.02;;;333.70;2329.60;;;;;;5011734;28;20026;-74
2022/10/11 05:30:54;;;;;;;19.45;8.10;;;333.70;2329.60;;;;;;5022467;28;20021;-76
2022/10/11 05:33:20;;;;;;;17.95;7.55;;;358.40;2329.60;;;;;;5029545;28;20033;-76
2022/10/11 05:35:46;;;;;;;18.80;8.73;;;358.50;2329.60;;;;;;5045758;28;20013;-77
2022/10/11 05:38:12;;;;;;;13.80;7.93;;;358.50;2329.60;;;;;;5027211;28;20028;-77
2022/10/11 05:40:38;;;;;;;14.48;7.05;;;358.50;2329.60;;;;;;5031029;28;20659;-82
2022/10/11 05:43:04;;;;;;;20.85;8.27;;;358.50;2329.60;;;;;;5033942;28;20482;-76
2022/10/11 05:45:31;;;;;;;26.08;8.48;;;358.60;2329.60;;;;;;5048827;28;20025;-77
2022/10/11 05:47:58;;;;;;;20.90;7.55;;;358.60;2329.60;;;;;;5023607;28;20036;-80
2022/10/11 05:50:24;;;;;;;22.52;9.35;;;358.70;2329.60;;;;;;5032800;28;20021;-79
2022/10/11 05:52:50;;;;;;;17.98;8.50;;;358.80;2329.60;;;;;;5014540;28;20032;-78
2022/10/11 05:55:16;;;;;;;30.10;9.48;;;358.90;2329.60;;;;;;5014482;28;20021;-77
2022/10/11 05:57:41;;;;;;;14.88;7.65;;;359.00;2329.60;;;;;;5028463;28;20037;-78
2022/10/11 06:00:08;;;;;;;18.50;8.85;;;359.00;2329.60;;;;;;5014481;28;20022;-75
2022/10/11 06:02:34;;;;;;;22.58;9.10;;;359.00;2329.60;;;;;;5027812;28;20056;-75
2022/10/11 06:05:00;;;;;;;24.80;9.48;;;359.10;2329.60;;;;;;5024289;28;20040;-75
2022/10/11 06:07:25;;;;;;;21.65;9.48;;;359.10;2329.60;;;;;;5053376;28;20097;-73
2022/10/11 06:09:51;;;;;;;19.15;8.85;;;359.20;2329.60;;;;;;5043461;28;20096;-74
2022/10/11 06:12:17;;;;;;;21.50;9.93;;;359.30;2329.60;;;;;;5055795;28;20103;-75
2022/10/11 06:14:43;;;;;;;21.80;10.18;;;384.60;2329.60;;;;;;5050074;28;20076;-72
2022/10/11 06:17:09;;;;;;;17.05;9.10;;;384.10;2329.60;;;;;;5047559;28;20064;-81
2022/10/11 06:19:35;;;;;;;12.20;7.32;;;384.30;2329.60;;;;;;5055413;28;20044;-73
2022/10/11 06:22:01;;;;;;;12.02;6.78;;;384.40;2329.60;;;;;;5055276;28;20035;-73
2022/10/11 06:24:26;;;;;;;13.40;7.80;;;384.50;2329.60;;;;;;5039789;28;20025;-77
2022/10/11 06:26:53;;;;;;;10.70;6.55;;;384.50;2329.60;;;;;;5043504;28;20029;-73
2022/10/11 06:29:19;;;;;;;13.57;6.75;;;384.60;2329.60;;;;;;5023926;28;20018;-75
2022/10/11 06:31:46;;;;;;;9.50;5.85;;;384.70;2329.60;;;;;;5055124;28;20402;-72
2022/10/11 06:34:12;;;;;;;15.45;6.88;;;384.80;2329.60;;;;;;5055511;28;20056;-80
2022/10/11 06:36:37;;;;;;;14.40;6.75;;;384.90;2329.60;;;;;;5051161;28;20463;-72
2022/10/11 06:39:03;;;;;;;14.95;6.65;;;409.80;2355.20;;;;;;5046058;28;20029;-71
2022/10/11 06:41:30;;;;;;;15.60;6.65;;;409.70;2355.20;;;;;;5042812;28;20025;-72
2022/10/11 06:43:56;;;;;;;22.70;6.82;;;409.80;2355.20;;;;;;5053562;28;20029;-72
2022/10/11 06:46:24;;;;;;;20.83;7.50;;;409.80;2355.20;;;;;;5055121;28;20023;-73
2022/10/11 06:48:50;;;;;;;19.95;8.15;;;409.80;2355.20;;;;;;5055102;28;20029;-72
2022/10/11 06:51:18;;;;;;;21.20;7.47;;;409.90;2355.20;;;;;;5055476;28;20048;-72
2022/10/11 06:53:52;;;;;;;16.55;6.78;;;410.00;2355.20;;;;;;5040821;28;20018;-75
2022/10/11 06:56:18;;;;;;;15.05;6.88;;;410.10;2355.20;;;;;;5055295;28;20020;-75
2022/10/11 06:58:44;;;;;;;14.07;6.38;;;410.20;2355.20;;;;;;5040815;28;20478;-73
2022/10/11 07:01:12;;;;;;;17.13;6.25;;;410.30;2355.20;;;;;;5041001;28;20033;-74
2022/10/11 07:03:38;;;;;;;15.57;6.07;;;410.40;2355.20;;;;;;5054723;28;20049;-73
2022/10/11 07:06:10;;;;;;;12.10;6.55;;;435.20;2355.20;;;;;;5054667;28;20027;-72
2022/10/11 07:08:36;;;;;;;15.23;5.65;;;435.20;2355.20;;;;;;5054746;28;20048;-73
2022/10/11 07:11:04;;;;;;;13.00;7.05;;;435.30;2355.20;;;;;;5054545;28;20446;-73
2022/10/11 07:13:30;;;;;;;15.45;5.95;;;435.30;2355.20;;;;;;5053764;28;20052;-73
2022/10/11 07:15:59;;;;;;;17.23;6.88;;;435.50;2355.20;;;;;;5054300;28;20025;-73
2022/10/11 07:18:24;;;;;;;8.73;5.43;;;435.50;2355.20;;;;;;5045707;28;20029;-79
2022/10/11 07:20:50;;;;;;;12.18;6.50;;;435.70;2355.20;;;;;;5048300;28;20033;-79
2022/10/11 07:23:16;;;;;;;13.95;6.55;;;435.60;2355.20;;;;;;5040817;28;20024;-73
2022/10/11 07:25:41;;;;;;;14.55;6.95;;;435.80;2355.20;;;;;;5054288;28;20040;-71
2022/10/11 07:28:07;;;;;;;12.77;6.40;;;435.80;2355.20;;;;;;5050170;28;20028;-73
2022/10/11 07:30:37;;;;;;;12.30;6.38;;;435.80;2355.20;;;;;;5044711;28;20478;-73
2022/10/11 07:33:03;;;;;;;13.98;6.63;;;435.90;2355.20;;;;;;5040171;28;20045;-73
2022/10/11 07:35:29;;;;;;;14.15;6.00;;;436.10;2355.20;;;;;;5054332;28;20025;-71
2022/10/11 07:37:55;;;;;;;10.77;5.50;;;436.10;2355.20;;;;;;5040133;28;20035;-73
2022/10/11 07:40:21;;;;;;;19.25;6.38;;;460.80;2380.80;;;;;;5047718;28;20076;-72
2022/10/11 07:42:46;;;;;;;14.65;6.78;;;460.90;2380.80;;;;;;5042895;28;20418;-72
2022/10/11 07:45:12;;;;;;;13.25;5.40;;;460.90;2380.80;;;;;;5054204;28;20017;-74
2022/10/11 07:47:38;;;;;;;15.55;6.10;;;460.90;2380.80;;;;;;5053852;28;20017;-83
2022/10/11 07:50:04;;;;;;;11.52;6.00;;;461.00;2380.80;;;;;;5054144;28;20028;-79
2022/10/11 07:52:29;;;;;;;14.80;5.38;;;461.10;2380.80;;;;;;5049017;28;20048;-73
2022/10/11 07:54:55;;;;;;;17.02;5.57;;;461.20;2380.80;;;;;;5044567;28;20021;-73
2022/10/11 07:57:21;;;;;;;17.73;4.80;;;461.30;2380.80;;;;;;5037208;28;20112;-74
2022/10/11 07:59:46;;;;;;;14.40;5.97;;;461.30;2380.80;;;;;;5033826;28;20033;-72
2022/10/11 08:02:13;;;;;;;14.65;5.43;;;461.40;2380.80;;;;;;5048136;28;20033;-73
2022/10/11 08:04:39;;;;;;;11.10;5.07;;;461.50;2380.80;;;;;;5053665;28;20048;-75
2022/10/11 08:07:05;;;;;;;10.02;4.63;;;461.50;2380.80;;;;;;5053847;28;20495;-71
2022/10/11 08:09:31;;;;;;;11.38;4.35;;;461.50;2380.80;;;;;;5053454;28;20092;-74
2022/10/11 08:11:57;;;;;;;14.38;5.20;;;461.60;2380.80;;;;;;5042963;28;20021;-73
2022/10/11 08:14:22;;;;;;;11.25;4.68;;;461.60;2380.80;;;;;;5050189;28;20032;-72
2022/10/11 08:16:48;;;;;;;8.27;5.00;;;461.60;2355.20;;;;;;5053728;28;20494;-72
2022/10/11 08:19:15;;;;;;;10.27;5.10;;;461.70;2380.80;;;;;;5053046;28;20031;-74
2022/10/11 08:21:41;;;;;;;10.40;4.82;;;461.70;2380.80;;;;;;5053210;28;20040;-76
2022/10/11 08:24:07;;;;;;;10.73;4.95;;;486.40;2380.80;;;;;;5053462;28;20020;-73
2022/10/11 08:26:33;;;;;;;10.85;5.07;;;486.40;2380.80;;;;;;5053028;28;20032;-73
2022/10/11 08:29:03;;;;;;;13.57;5.05;;;486.40;2380.80;;;;;;5042250;28;20067;-76
2022/10/11 08:31:30;;;;;;;13.30;4.68;;;486.40;2380.80;;;;;;5050859;28;20013;-73
2022/10/11 08:33:56;;;;;;;16.45;5.60;;;486.50;2355.20;;;;;;5053151;28;20033;-73
2022/10/11 08:36:22;;;;;;;10.50;4.35;;;486.50;2380.80;;;;;;5052728;28;20348;-74
2022/10/11 08:38:48;;;;;;;11.23;6.15;;;486.50;2329.60;;;;;;5045358;28;20037;-77
2022/10/11 08:41:24;;;;;;;13.52;5.22;;;486.60;2329.60;;;;;;5032997;28;20116;-74
2022/10/11 08:43:56;;;;;;;11.43;5.30;;;486.70;2329.60;;;;;;5036391;28;20052;-73
2022/10/11 08:46:26;;;;;;;13.18;4.95;;;486.70;2329.60;;;;;;5053166;28;20025;-73
2022/10/11 08:48:53;;;;;;;7.93;4.85;;;486.60;2278.40;;;;;;5034662;28;20120;-77
2022/10/11 08:51:25;;;;;;;13.65;5.82;;;486.80;2380.80;;;;;;5035305;28;20032;-73
2022/10/11 08:54:13;;;;;;;11.07;5.13;;;486.80;2380.80;;;;;;5038639;28;20467;-71
2022/10/11 08:56:40;;;;;;;15.13;5.30;;;486.80;2329.60;;;;;;5041596;28;20033;-73
2022/10/11 08:59:12;;;;;;;14.52;6.10;;;486.70;2304.00;;;;;;5049852;28;20430;-72
2022/10/11 09:01:56;;;;;;;9.70;5.35;;;486.80;2355.20;;;;;;5052271;28;20574;-73
2022/10/11 09:04:22;;;;;;;13.55;5.95;;;486.90;2278.40;;;;;;5038038;28;20044;-72
2022/10/11 09:07:03;;;;;;;12.65;5.78;;;487.00;2304.00;;;;;;5042051;28;20125;-72
2022/10/11 09:09:48;;;;;;;12.27;5.40;;;487.10;2278.40;;;;;;5036886;28;20104;-74
2022/10/11 09:12:59;;;;;;;12.65;5.28;;;487.10;2278.40;;;;;;5038995;28;20479;-72
2022/10/11 09:15:40;;;;;;;13.48;6.15;;;487.10;2380.80;;;;;;5019913;28;20061;-71
2022/10/11 09:18:39;;;;;;;12.23;5.40;;;487.30;2201.60;;;;;;5051861;28;20049;-78
2022/10/11 09:21:23;;;;;;;14.60;5.45;;;512.10;2278.40;;;;;;5048102;28;20463;-72
2022/10/11 09:24:20;;;;;;;14.93;5.60;;;512.10;2329.60;;;;;;5052636;28;20032;-73
2022/10/11 09:26:51;;;;;;;18.15;5.32;;;512.20;2278.40;;;;;;5026072;28;20025;-72
2022/10/11 09:29:23;;;;;;;11.38;5.00;;;512.50;2099.20;;;;;;5038754;28;20032;-73
2022/10/11 09:31:53;;;;;;;10.18;6.32;;;512.60;2048.00;;;;;;5025558;28;20033;-74
2022/10/11 09:34:24;;;;;;;13.93;6.05;;;512.50;2099.20;;;;;;5052103;28;20029;-73
2022/10/11 09:36:56;;;;;;;23.45;5.45;;;512.70;2176.00;;;;;;5052152;28;20025;-73
2022/10/11 09:39:32;;;;;;;13.70;5.55;;;512.70;2099.20;;;;;;5052173;28;20013;-74
2022/10/11 09:42:06;;;;;;;9.13;4.88;;;512.90;2124.80;;;;;;5035696;28;20434;-77
2022/10/11 09:44:35;;;;;;;13.68;5.75;;;537.60;2022.40;;;;;;5041364;28;20032;-76
2022/10/11 09:47:01;;;;;;;14.75;5.82;;;537.70;2150.40;;;;;;5037904;28;20028;-73
2022/10/11 09:49:36;;;;;;;10.65;5.68;;;537.60;2048.00;;;;;;5052217;28;20029;-73
2022/10/11 09:52:04;;;;;;;10.67;5.63;;;537.70;2124.80;;;;;;5051857;28;20052;-73
2022/10/11 09:54:43;;;;;;;13.35;5.82;;;537.60;2022.40;;;;;;5051998;28;20277;-78
2022/10/11 09:57:27;;;;;;;20.13;7.07;;;538.00;1971.20;;;;;;5036954;28;20108;-74
2022/10/11 10:00:17;;;;;;;17.65;6.80;;;538.00;1971.20;;;;;;5041434;28;20017;-81
2022/10/11 10:03:01;;;;;;;11.40;6.78;;;538.10;2073.60;;;;;;5051352;28;20053;-74
2022/10/11 10:05:32;;;;;;;9.70;5.88;;;538.10;1996.80;;;;;;5051909;28;20055;-75
2022/10/11 10:08:10;;;;;;;17.27;6.95;;;538.10;1945.60;;;;;;5024544;28;20025;-74
2022/10/11 10:10:47;;;;;;;22.27;6.90;;;538.40;1996.80;;;;;;5051599;28;20402;-75
2022/10/11 10:13:23;;;;;;;16.75;5.97;;;538.50;1920.00;;;;;;5026935;28;20104;-74
2022/10/11 10:15:52;;;;;;;15.88;6.05;;;538.50;1920.00;;;;;;5050878;28;20025;-74
2022/10/11 10:18:42;;;;;;;17.48;7.07;;;563.20;1945.60;;;;;;5038874;28;20021;-75
2022/10/11 10:21:13;;;;;;;16.38;5.82;;;538.50;1894.40;;;;;;5049198;28;20100;-74
2022/10/11 10:23:40;;;;;;;12.52;6.43;;;563.50;1868.80;;;;;;5040911;28;20021;-75
2022/10/11 10:26:19;;;;;;;11.35;6.10;;;563.60;1945.60;;;;;;5051420;28;20017;-73
2022/10/11 10:28:55;;;;;;;8.00;5.60;;;563.80;1843.20;;;;;;5042448;28;20036;-75
2022/10/11 10:31:27;;;;;;;11.90;6.72;;;564.10;1792.00;;;;;;5048192;28;20037;-74
2022/10/11 10:33:54;;;;;;;16.13;6.55;;;564.00;1843.20;;;;;;5033540;28;20473;-75
2022/10/11 10:36:27;;;;;;;9.88;6.50;;;564.00;1817.60;;;;;;5035664;28;20064;-73
2022/10/11 10:39:01;;;;;;;9.27;6.15;;;564.00;1766.40;;;;;;5040321;28;20025;-74
2022/10/11 10:41:27;;;;;;;19.58;6.32;;;588.80;1817.60;;;;;;5039551;28;20041;-74
2022/10/11 10:43:57;;;;;;;11.40;6.82;;;563.90;1817.60;;;;;;5035002;28;20048;-83
2022/10/11 10:46:36;;;;;;;12.15;6.45;;;564.10;1817.60;;;;;;5051879;28;20384;-74
2022/10/11 10:49:25;;;;;;;15.90;6.75;;;588.90;1766.40;;;;;;5037334;28;20021;-79
2022/10/11 10:52:01;;;;;;;11.18;6.97;;;588.90;1792.00;;;;;;5051563;28;20051;-75
2022/10/11 10:54:27;;;;;;;14.98;8.15;;;588.90;1792.00;;;;;;5028364;28;20017;-77
2022/10/11 10:56:59;;;;;;;17.65;8.77;;;589.20;1817.60;;;;;;5042349;28;20387;-75
2022/10/11 10:59:51;;;;;;;12.85;7.43;;;589.20;1792.00;;;;;;5049051;28;20017;-75
2022/10/11 11:02:27;;;;;;;18.42;9.88;;;564.10;1817.60;;;;;;5034544;28;20060;-81
2022/10/11 11:05:10;;;;;;;14.67;8.20;;;564.10;1894.40;;;;;;5035005;28;20026;-75
2022/10/11 11:07:45;;;;;;;18.00;8.30;;;588.90;1843.20;;;;;;5020042;28;20029;-75
2022/10/11 11:10:19;;;;;;;15.87;8.00;;;589.00;1792.00;;;;;;5054622;28;20067;-78
2022/10/11 11:12:58;;;;;;;14.05;7.47;;;564.00;1920.00;;;;;;5037187;28;20019;-77
2022/10/11 11:15:34;;;;;;;16.08;7.97;;;564.10;1945.60;;;;;;5034622;28;20029;-74
2022/10/11 11:18:25;;;;;;;16.35;7.22;;;564.00;1920.00;;;;;;5053604;28;20095;-74
2022/10/11 11:21:01;;;;;;;17.20;8.05;;;564.00;1817.60;;;;;;5054710;28;20025;-73
2022/10/11 11:23:46;;;;;;;14.10;7.85;;;564.00;1843.20;;;;;;5054467;28;20025;-73
2022/10/11 11:26:32;;;;;;;14.18;7.70;;;564.00;1971.20;;;;;;5038024;28;20032;-75
2022/10/11 11:28:58;;;;;;;20.85;7.47;;;564.10;1920.00;;;;;;5045795;28;20510;-73
2022/10/11 11:31:33;;;;;;;18.70;9.18;;;564.10;1843.20;;;;;;5037320;28;20105;-74
2022/10/11 11:34:26;;;;;;;9.57;7.75;;;588.90;1843.20;;;;;;5034411;28;20026;-77
2022/10/11 11:36:52;;;;;;;17.65;9.23;;;564.00;1843.20;;;;;;5026847;28;20032;-75
2022/10/11 11:39:30;;;;;;;15.55;9.80;;;588.80;1894.40;;;;;;5054088;28;20419;-87
2022/10/11 11:42:03;;;;;;;16.10;10.85;;;588.90;1920.00;;;;;;5040022;28;20360;-73
2022/10/11 11:44:37;;;;;;;23.27;12.15;;;588.90;1868.80;;;;;;5045333;28;20045;-83
2022/10/11 11:47:03;;;;;;;15.38;10.68;;;589.20;1817.60;;;;;;5049780;28;20021;-73
2022/10/11 11:49:36;;;;;;;16.13;9.77;;;589.00;1792.00;;;;;;5054157;28;20097;-74
2022/10/11 11:52:05;;;;;;;23.98;10.63;;;564.10;1843.20;;;;;;5053912;28;20021;-74
2022/10/11 11:54:49;;;;;;;21.92;9.73;;;589.00;1843.20;;;;;;5053824;28;20045;-73
2022/10/11 11:57:48;;;;;;;13.48;9.98;;;589.30;1792.00;;;;;;5038027;28;20025;-84
2022/10/11 12:00:29;;;;;;;18.77;11.50;;;589.20;1817.60;;;;;;5046423;28;20487;-71
2022/10/11 12:03:12;;;;;;;20.55;11.60;;;588.90;1766.40;;;;;;5053691;28;20139;-74
2022/10/11 12:05:37;;;;;;;39.50;16.02;;;589.00;1843.20;;;;;;5053059;28;20541;-73
2022/10/11 12:08:07;;;;;;;25.77;12.27;;;564.10;1817.60;;;;;;5053610;28;20060;-73
2022/10/11 12:10:54;;;;;;;36.85;17.92;;;588.80;1817.60;;;;;;5053581;28;20112;-73
2022/10/11 12:13:34;;;;;;;43.72;19.88;;;564.10;1868.80;;;;;;5030385;28;20536;-73
2022/10/11 12:16:03;;;;;;;59.40;28.10;;;563.90;1945.60;;;;;;5039609;28;20037;-83
2022/10/11 12:18:30;;;;;;;34.05;19.42;;;564.00;1894.40;;;;;;5053530;28;20021;-73
2022/10/11 12:21:15;;;;;;;39.22;19.90;;;563.70;1996.80;;;;;;5053403;28;20048;-74
2022/10/11 12:23:54;;;;;;;36.13;20.50;;;563.60;1971.20;;;;;;5043958;28;20080;-74
2022/10/11 12:26:28;;;;;;;22.83;14.82;;;563.50;1996.80;;;;;;5050451;28;20645;-73